sensor_id;sensor_type;location;lat;lon;timestamp;P1;durP1;ratioP1;P2;durP2;ratioP2
66628;SDS011;53532;53.084;6.352;2023-04-21T00:01:02;32.60;;;26.15;;
66628;SDS011;53532;53.084;6.352;2023-04-21T00:03:32;31.85;;;27.73;;
66628;SDS011;53532;53.084;6.352;2023-04-21T00:06:01;30.77;;;24.48;;
66628;SDS011;53532;53.084;6.352;2023-04-21T00:08:31;30.58;;;26.20;;
66628;SDS011;53532;53.084;6.352;2023-04-21T00:10:58;34.20;;;25.73;;
66628;SDS011;53532;53.084;6.352;2023-04-21T00:13:24;30.75;;;24.48;;
66628;SDS011;53532;53.084;6.352;2023-04-21T00:15:50;30.65;;;25.20;;
66628;SDS011;53532;53.084;6.352;2023-04-21T00:18:16;29.52;;;24.13;;
66628;SDS011;53532;53.084;6.352;2023-04-21T00:20:42;32.63;;;23.77;;
66628;SDS011;53532;53.084;6.352;2023-04-21T00:23:09;30.77;;;23.48;;
66628;SDS011;53532;53.084;6.352;2023-04-21T00:25:36;29.95;;;23.65;;
66628;SDS011;53532;53.084;6.352;2023-04-21T00:28:02;29.13;;;22.83;;
66628;SDS011;53532;53.084;6.352;2023-04-21T00:30:29;27.27;;;22.38;;
66628;SDS011;53532;53.084;6.352;2023-04-21T00:32:55;28.10;;;22.88;;
66628;SDS011;53532;53.084;6.352;2023-04-21T00:35:21;27.98;;;21.35;;
66628;SDS011;53532;53.084;6.352;2023-04-21T00:37:47;29.23;;;21.80;;
66628;SDS011;53532;53.084;6.352;2023-04-21T00:40:14;29.65;;;22.73;;
66628;SDS011;53532;53.084;6.352;2023-04-21T00:42:41;27.25;;;20.98;;
66628;SDS011;53532;53.084;6.352;2023-04-21T00:45:08;26.17;;;21.42;;
66628;SDS011;53532;53.084;6.352;2023-04-21T00:47:34;27.85;;;21.38;;
66628;SDS011;53532;53.084;6.352;2023-04-21T00:50:00;30.40;;;21.88;;
66628;SDS011;53532;53.084;6.352;2023-04-21T00:52:28;27.70;;;21.70;;
66628;SDS011;53532;53.084;6.352;2023-04-21T00:54:54;32.70;;;21.67;;
66628;SDS011;53532;53.084;6.352;2023-04-21T00:57:20;27.58;;;21.80;;
66628;SDS011;53532;53.084;6.352;2023-04-21T00:59:48;28.95;;;22.35;;
66628;SDS011;53532;53.084;6.352;2023-04-21T01:02:14;28.25;;;22.00;;
66628;SDS011;53532;53.084;6.352;2023-04-21T01:04:41;28.30;;;22.02;;
66628;SDS011;53532;53.084;6.352;2023-04-21T01:07:07;25.52;;;20.88;;
66628;SDS011;53532;53.084;6.352;2023-04-21T01:09:34;28.10;;;21.85;;
66628;SDS011;53532;53.084;6.352;2023-04-21T01:12:00;27.85;;;22.60;;
66628;SDS011;53532;53.084;6.352;2023-04-21T01:14:27;26.13;;;20.85;;
66628;SDS011;53532;53.084;6.352;2023-04-21T01:16:55;24.92;;;21.55;;
66628;SDS011;53532;53.084;6.352;2023-04-21T01:19:21;28.48;;;21.85;;
66628;SDS011;53532;53.084;6.352;2023-04-21T01:21:50;35.58;;;21.35;;
66628;SDS011;53532;53.084;6.352;2023-04-21T01:24:21;26.75;;;20.27;;
66628;SDS011;53532;53.084;6.352;2023-04-21T01:26:48;26.95;;;21.10;;
66628;SDS011;53532;53.084;6.352;2023-04-21T01:29:14;27.67;;;21.17;;
66628;SDS011;53532;53.084;6.352;2023-04-21T01:31:41;27.55;;;20.33;;
66628;SDS011;53532;53.084;6.352;2023-04-21T01:34:08;26.85;;;21.08;;
66628;SDS011;53532;53.084;6.352;2023-04-21T01:36:34;26.05;;;20.38;;
66628;SDS011;53532;53.084;6.352;2023-04-21T01:39:02;28.52;;;21.50;;
66628;SDS011;53532;53.084;6.352;2023-04-21T01:41:29;28.63;;;21.42;;
66628;SDS011;53532;53.084;6.352;2023-04-21T01:43:55;26.25;;;21.75;;
66628;SDS011;53532;53.084;6.352;2023-04-21T01:46:21;26.75;;;21.40;;
66628;SDS011;53532;53.084;6.352;2023-04-21T01:48:47;28.58;;;21.45;;
66628;SDS011;53532;53.084;6.352;2023-04-21T01:51:13;26.33;;;21.60;;
66628;SDS011;53532;53.084;6.352;2023-04-21T01:53:39;27.40;;;20.73;;
66628;SDS011;53532;53.084;6.352;2023-04-21T01:56:07;28.52;;;22.00;;
66628;SDS011;53532;53.084;6.352;2023-04-21T01:58:33;23.98;;;19.67;;
66628;SDS011;53532;53.084;6.352;2023-04-21T02:00:59;28.80;;;21.80;;
66628;SDS011;53532;53.084;6.352;2023-04-21T02:03:25;25.23;;;20.88;;
66628;SDS011;53532;53.084;6.352;2023-04-21T02:05:51;26.83;;;20.98;;
66628;SDS011;53532;53.084;6.352;2023-04-21T02:08:18;25.45;;;21.17;;
66628;SDS011;53532;53.084;6.352;2023-04-21T02:10:44;27.80;;;22.00;;
66628;SDS011;53532;53.084;6.352;2023-04-21T02:13:11;25.42;;;20.90;;
66628;SDS011;53532;53.084;6.352;2023-04-21T02:15:38;25.27;;;20.60;;
66628;SDS011;53532;53.084;6.352;2023-04-21T02:18:04;28.85;;;21.27;;
66628;SDS011;53532;53.084;6.352;2023-04-21T02:20:30;25.08;;;20.98;;
66628;SDS011;53532;53.084;6.352;2023-04-21T02:22:56;27.02;;;20.55;;
66628;SDS011;53532;53.084;6.352;2023-04-21T02:25:23;26.05;;;21.63;;
66628;SDS011;53532;53.084;6.352;2023-04-21T02:27:49;26.38;;;20.80;;
66628;SDS011;53532;53.084;6.352;2023-04-21T02:30:17;28.67;;;21.05;;
66628;SDS011;53532;53.084;6.352;2023-04-21T02:32:43;29.73;;;21.90;;
66628;SDS011;53532;53.084;6.352;2023-04-21T02:35:09;24.77;;;20.17;;
66628;SDS011;53532;53.084;6.352;2023-04-21T02:37:35;29.25;;;22.90;;
66628;SDS011;53532;53.084;6.352;2023-04-21T02:40:02;27.67;;;21.38;;
66628;SDS011;53532;53.084;6.352;2023-04-21T02:42:29;26.65;;;21.75;;
66628;SDS011;53532;53.084;6.352;2023-04-21T02:44:57;28.73;;;21.67;;
66628;SDS011;53532;53.084;6.352;2023-04-21T02:47:25;28.65;;;21.95;;
66628;SDS011;53532;53.084;6.352;2023-04-21T02:49:51;30.20;;;22.50;;
66628;SDS011;53532;53.084;6.352;2023-04-21T02:52:17;30.45;;;22.10;;
66628;SDS011;53532;53.084;6.352;2023-04-21T02:54:43;28.30;;;22.00;;
66628;SDS011;53532;53.084;6.352;2023-04-21T02:57:09;30.77;;;23.67;;
66628;SDS011;53532;53.084;6.352;2023-04-21T02:59:36;29.48;;;22.52;;
66628;SDS011;53532;53.084;6.352;2023-04-21T03:02:02;27.88;;;22.15;;
66628;SDS011;53532;53.084;6.352;2023-04-21T03:04:29;27.73;;;22.77;;
66628;SDS011;53532;53.084;6.352;2023-04-21T03:06:56;26.70;;;21.75;;
66628;SDS011;53532;53.084;6.352;2023-04-21T03:09:22;30.35;;;22.90;;
66628;SDS011;53532;53.084;6.352;2023-04-21T03:11:48;27.30;;;22.25;;
66628;SDS011;53532;53.084;6.352;2023-04-21T03:14:14;28.88;;;23.25;;
66628;SDS011;53532;53.084;6.352;2023-04-21T03:16:40;30.52;;;23.02;;
66628;SDS011;53532;53.084;6.352;2023-04-21T03:19:07;28.65;;;22.92;;
66628;SDS011;53532;53.084;6.352;2023-04-21T03:21:36;29.38;;;22.73;;
66628;SDS011;53532;53.084;6.352;2023-04-21T03:24:03;28.73;;;22.83;;
66628;SDS011;53532;53.084;6.352;2023-04-21T03:26:29;25.33;;;22.33;;
66628;SDS011;53532;53.084;6.352;2023-04-21T03:28:55;27.80;;;22.90;;
66628;SDS011;53532;53.084;6.352;2023-04-21T03:31:22;26.50;;;22.50;;
66628;SDS011;53532;53.084;6.352;2023-04-21T03:33:48;30.08;;;23.08;;
66628;SDS011;53532;53.084;6.352;2023-04-21T03:36:14;30.90;;;22.88;;
66628;SDS011;53532;53.084;6.352;2023-04-21T03:38:41;30.20;;;22.55;;
66628;SDS011;53532;53.084;6.352;2023-04-21T03:41:07;28.25;;;22.52;;
66628;SDS011;53532;53.084;6.352;2023-04-21T03:43:34;28.08;;;22.73;;
66628;SDS011;53532;53.084;6.352;2023-04-21T03:46:00;28.48;;;22.98;;
66628;SDS011;53532;53.084;6.352;2023-04-21T03:48:27;27.73;;;23.70;;
66628;SDS011;53532;53.084;6.352;2023-04-21T03:50:53;29.30;;;22.60;;
66628;SDS011;53532;53.084;6.352;2023-04-21T03:53:19;27.23;;;22.58;;
66628;SDS011;53532;53.084;6.352;2023-04-21T03:55:48;30.98;;;24.15;;
66628;SDS011;53532;53.084;6.352;2023-04-21T03:58:14;27.45;;;23.17;;
66628;SDS011;53532;53.084;6.352;2023-04-21T04:00:41;27.98;;;23.60;;
66628;SDS011;53532;53.084;6.352;2023-04-21T04:03:07;28.08;;;22.90;;
66628;SDS011;53532;53.084;6.352;2023-04-21T04:05:34;27.48;;;22.35;;
66628;SDS011;53532;53.084;6.352;2023-04-21T04:08:00;30.02;;;23.67;;
66628;SDS011;53532;53.084;6.352;2023-04-21T04:10:26;28.63;;;23.08;;
66628;SDS011;53532;53.084;6.352;2023-04-21T04:12:54;26.13;;;22.27;;
66628;SDS011;53532;53.084;6.352;2023-04-21T04:15:20;28.75;;;22.20;;
66628;SDS011;53532;53.084;6.352;2023-04-21T04:17:46;29.65;;;22.73;;
66628;SDS011;53532;53.084;6.352;2023-04-21T04:20:12;29.20;;;22.40;;
66628;SDS011;53532;53.084;6.352;2023-04-21T04:22:39;26.33;;;21.23;;
66628;SDS011;53532;53.084;6.352;2023-04-21T04:25:05;29.10;;;22.05;;
66628;SDS011;53532;53.084;6.352;2023-04-21T04:27:31;27.05;;;20.90;;
66628;SDS011;53532;53.084;6.352;2023-04-21T04:29:59;28.38;;;21.08;;
66628;SDS011;53532;53.084;6.352;2023-04-21T04:32:25;29.63;;;23.05;;
66628;SDS011;53532;53.084;6.352;2023-04-21T04:34:52;27.38;;;20.52;;
66628;SDS011;53532;53.084;6.352;2023-04-21T04:37:19;25.48;;;20.23;;
66628;SDS011;53532;53.084;6.352;2023-04-21T04:39:46;26.33;;;20.90;;
66628;SDS011;53532;53.084;6.352;2023-04-21T04:42:13;27.58;;;20.85;;
66628;SDS011;53532;53.084;6.352;2023-04-21T04:44:39;23.80;;;19.85;;
66628;SDS011;53532;53.084;6.352;2023-04-21T04:47:07;25.80;;;19.98;;
66628;SDS011;53532;53.084;6.352;2023-04-21T04:49:33;26.98;;;20.77;;
66628;SDS011;53532;53.084;6.352;2023-04-21T04:51:59;24.25;;;20.10;;
66628;SDS011;53532;53.084;6.352;2023-04-21T04:54:25;24.75;;;20.27;;
66628;SDS011;53532;53.084;6.352;2023-04-21T04:56:53;23.75;;;19.38;;
66628;SDS011;53532;53.084;6.352;2023-04-21T04:59:19;22.60;;;19.40;;
66628;SDS011;53532;53.084;6.352;2023-04-21T05:01:46;25.95;;;19.58;;
66628;SDS011;53532;53.084;6.352;2023-04-21T05:04:13;27.55;;;20.80;;
66628;SDS011;53532;53.084;6.352;2023-04-21T05:06:40;24.85;;;18.90;;
66628;SDS011;53532;53.084;6.352;2023-04-21T05:09:06;23.27;;;18.70;;
66628;SDS011;53532;53.084;6.352;2023-04-21T05:11:34;26.45;;;19.17;;
66628;SDS011;53532;53.084;6.352;2023-04-21T05:14:00;24.95;;;18.00;;
66628;SDS011;53532;53.084;6.352;2023-04-21T05:16:26;22.08;;;18.40;;
66628;SDS011;53532;53.084;6.352;2023-04-21T05:18:52;24.58;;;18.42;;
66628;SDS011;53532;53.084;6.352;2023-04-21T05:21:24;22.65;;;18.35;;
66628;SDS011;53532;53.084;6.352;2023-04-21T05:23:53;24.95;;;18.63;;
66628;SDS011;53532;53.084;6.352;2023-04-21T05:26:20;26.90;;;18.50;;
66628;SDS011;53532;53.084;6.352;2023-04-21T05:28:46;23.20;;;17.15;;
66628;SDS011;53532;53.084;6.352;2023-04-21T05:31:12;26.70;;;18.50;;
66628;SDS011;53532;53.084;6.352;2023-04-21T05:33:38;23.85;;;17.73;;
66628;SDS011;53532;53.084;6.352;2023-04-21T05:36:05;22.25;;;17.92;;
66628;SDS011;53532;53.084;6.352;2023-04-21T05:38:34;22.60;;;18.02;;
66628;SDS011;53532;53.084;6.352;2023-04-21T05:41:00;26.33;;;18.60;;
66628;SDS011;53532;53.084;6.352;2023-04-21T05:43:27;23.00;;;18.25;;
66628;SDS011;53532;53.084;6.352;2023-04-21T05:45:53;24.02;;;18.00;;
66628;SDS011;53532;53.084;6.352;2023-04-21T05:48:19;23.88;;;17.02;;
66628;SDS011;53532;53.084;6.352;2023-04-21T05:50:45;20.48;;;17.27;;
66628;SDS011;53532;53.084;6.352;2023-04-21T05:53:11;20.98;;;17.30;;
66628;SDS011;53532;53.084;6.352;2023-04-21T05:55:39;26.40;;;17.15;;
66628;SDS011;53532;53.084;6.352;2023-04-21T05:58:05;23.15;;;17.27;;
66628;SDS011;53532;53.084;6.352;2023-04-21T06:00:31;24.02;;;17.42;;
66628;SDS011;53532;53.084;6.352;2023-04-21T06:02:57;22.70;;;18.15;;
66628;SDS011;53532;53.084;6.352;2023-04-21T06:05:24;20.95;;;16.80;;
66628;SDS011;53532;53.084;6.352;2023-04-21T06:07:50;22.35;;;17.35;;
66628;SDS011;53532;53.084;6.352;2023-04-21T06:10:16;22.05;;;16.92;;
66628;SDS011;53532;53.084;6.352;2023-04-21T06:12:44;21.00;;;16.65;;
66628;SDS011;53532;53.084;6.352;2023-04-21T06:15:10;23.58;;;17.38;;
66628;SDS011;53532;53.084;6.352;2023-04-21T06:17:37;23.15;;;17.00;;
66628;SDS011;53532;53.084;6.352;2023-04-21T06:20:03;20.25;;;16.13;;
66628;SDS011;53532;53.084;6.352;2023-04-21T06:22:29;23.92;;;17.05;;
66628;SDS011;53532;53.084;6.352;2023-04-21T06:24:57;20.33;;;16.23;;
66628;SDS011;53532;53.084;6.352;2023-04-21T06:27:23;21.50;;;16.15;;
66628;SDS011;53532;53.084;6.352;2023-04-21T06:29:54;21.27;;;16.45;;
66628;SDS011;53532;53.084;6.352;2023-04-21T06:32:20;20.10;;;15.85;;
66628;SDS011;53532;53.084;6.352;2023-04-21T06:34:46;22.50;;;16.13;;
66628;SDS011;53532;53.084;6.352;2023-04-21T06:37:12;20.40;;;15.55;;
66628;SDS011;53532;53.084;6.352;2023-04-21T06:39:38;22.27;;;17.20;;
66628;SDS011;53532;53.084;6.352;2023-04-21T06:42:05;20.92;;;15.85;;
66628;SDS011;53532;53.084;6.352;2023-04-21T06:44:31;20.63;;;15.65;;
66628;SDS011;53532;53.084;6.352;2023-04-21T06:46:58;20.00;;;15.35;;
66628;SDS011;53532;53.084;6.352;2023-04-21T06:49:25;18.48;;;14.98;;
66628;SDS011;53532;53.084;6.352;2023-04-21T06:51:51;20.50;;;14.45;;
66628;SDS011;53532;53.084;6.352;2023-04-21T06:54:17;19.30;;;15.20;;
66628;SDS011;53532;53.084;6.352;2023-04-21T06:56:43;19.27;;;14.68;;
66628;SDS011;53532;53.084;6.352;2023-04-21T06:59:09;20.23;;;15.18;;
66628;SDS011;53532;53.084;6.352;2023-04-21T07:01:35;19.50;;;14.60;;
66628;SDS011;53532;53.084;6.352;2023-04-21T07:04:03;19.15;;;14.52;;
66628;SDS011;53532;53.084;6.352;2023-04-21T07:06:30;19.95;;;14.75;;
66628;SDS011;53532;53.084;6.352;2023-04-21T07:08:56;20.33;;;15.73;;
66628;SDS011;53532;53.084;6.352;2023-04-21T07:11:23;19.17;;;14.23;;
66628;SDS011;53532;53.084;6.352;2023-04-21T07:13:49;17.73;;;14.38;;
66628;SDS011;53532;53.084;6.352;2023-04-21T07:16:15;20.33;;;14.63;;
66628;SDS011;53532;53.084;6.352;2023-04-21T07:18:41;18.92;;;14.60;;
66628;SDS011;53532;53.084;6.352;2023-04-21T07:21:09;22.75;;;15.07;;
66628;SDS011;53532;53.084;6.352;2023-04-21T07:23:35;21.13;;;14.70;;
66628;SDS011;53532;53.084;6.352;2023-04-21T07:26:01;19.75;;;14.25;;
66628;SDS011;53532;53.084;6.352;2023-04-21T07:28:27;20.45;;;14.30;;
66628;SDS011;53532;53.084;6.352;2023-04-21T07:30:53;20.83;;;14.52;;
66628;SDS011;53532;53.084;6.352;2023-04-21T07:33:20;24.85;;;14.65;;
66628;SDS011;53532;53.084;6.352;2023-04-21T07:35:46;19.08;;;14.15;;
66628;SDS011;53532;53.084;6.352;2023-04-21T07:38:14;19.40;;;13.98;;
66628;SDS011;53532;53.084;6.352;2023-04-21T07:40:40;18.73;;;14.13;;
66628;SDS011;53532;53.084;6.352;2023-04-21T07:43:07;20.13;;;14.27;;
66628;SDS011;53532;53.084;6.352;2023-04-21T07:45:33;20.88;;;14.55;;
66628;SDS011;53532;53.084;6.352;2023-04-21T07:47:59;20.17;;;14.18;;
66628;SDS011;53532;53.084;6.352;2023-04-21T07:50:25;21.05;;;15.00;;
66628;SDS011;53532;53.084;6.352;2023-04-21T07:52:51;20.67;;;13.63;;
66628;SDS011;53532;53.084;6.352;2023-04-21T07:55:19;21.48;;;13.10;;
66628;SDS011;53532;53.084;6.352;2023-04-21T07:57:45;18.70;;;13.23;;
66628;SDS011;53532;53.084;6.352;2023-04-21T08:00:12;20.88;;;13.93;;
66628;SDS011;53532;53.084;6.352;2023-04-21T08:02:38;22.08;;;13.35;;
66628;SDS011;53532;53.084;6.352;2023-04-21T08:05:04;18.05;;;12.70;;
66628;SDS011;53532;53.084;6.352;2023-04-21T08:07:30;17.45;;;12.65;;
66628;SDS011;53532;53.084;6.352;2023-04-21T08:09:56;16.65;;;12.63;;
66628;SDS011;53532;53.084;6.352;2023-04-21T08:12:25;18.63;;;13.25;;
66628;SDS011;53532;53.084;6.352;2023-04-21T08:14:51;19.17;;;13.43;;
66628;SDS011;53532;53.084;6.352;2023-04-21T08:17:17;19.42;;;12.98;;
66628;SDS011;53532;53.084;6.352;2023-04-21T08:19:44;18.60;;;13.20;;
66628;SDS011;53532;53.084;6.352;2023-04-21T08:22:10;17.38;;;13.02;;
66628;SDS011;53532;53.084;6.352;2023-04-21T08:24:36;16.90;;;12.45;;
66628;SDS011;53532;53.084;6.352;2023-04-21T08:27:02;19.67;;;13.45;;
66628;SDS011;53532;53.084;6.352;2023-04-21T08:29:30;17.77;;;12.15;;
66628;SDS011;53532;53.084;6.352;2023-04-21T08:31:56;17.83;;;11.63;;
66628;SDS011;53532;53.084;6.352;2023-04-21T08:34:22;18.45;;;12.52;;
66628;SDS011;53532;53.084;6.352;2023-04-21T08:36:48;18.48;;;12.40;;
66628;SDS011;53532;53.084;6.352;2023-04-21T08:39:15;19.42;;;12.48;;
66628;SDS011;53532;53.084;6.352;2023-04-21T08:41:41;17.38;;;12.20;;
66628;SDS011;53532;53.084;6.352;2023-04-21T08:44:07;16.88;;;11.23;;
66628;SDS011;53532;53.084;6.352;2023-04-21T08:46:35;17.20;;;12.02;;
66628;SDS011;53532;53.084;6.352;2023-04-21T08:49:01;18.92;;;11.38;;
66628;SDS011;53532;53.084;6.352;2023-04-21T08:51:28;17.75;;;11.80;;
66628;SDS011;53532;53.084;6.352;2023-04-21T08:53:55;18.15;;;12.05;;
66628;SDS011;53532;53.084;6.352;2023-04-21T08:56:22;17.55;;;11.43;;
66628;SDS011;53532;53.084;6.352;2023-04-21T08:58:49;19.08;;;12.05;;
66628;SDS011;53532;53.084;6.352;2023-04-21T09:01:15;19.05;;;11.93;;
66628;SDS011;53532;53.084;6.352;2023-04-21T09:03:42;18.20;;;11.93;;
66628;SDS011;53532;53.084;6.352;2023-04-21T09:06:09;19.27;;;12.27;;
66628;SDS011;53532;53.084;6.352;2023-04-21T09:08:37;18.02;;;11.45;;
66628;SDS011;53532;53.084;6.352;2023-04-21T09:11:04;16.50;;;11.23;;
66628;SDS011;53532;53.084;6.352;2023-04-21T09:13:31;17.92;;;12.10;;
66628;SDS011;53532;53.084;6.352;2023-04-21T09:15:57;16.95;;;11.00;;
66628;SDS011;53532;53.084;6.352;2023-04-21T09:18:24;17.83;;;11.60;;
66628;SDS011;53532;53.084;6.352;2023-04-21T09:21:03;16.20;;;11.23;;
66628;SDS011;53532;53.084;6.352;2023-04-21T09:23:30;17.65;;;12.30;;
66628;SDS011;53532;53.084;6.352;2023-04-21T09:25:56;19.08;;;12.27;;
66628;SDS011;53532;53.084;6.352;2023-04-21T09:28:22;17.02;;;11.88;;
66628;SDS011;53532;53.084;6.352;2023-04-21T09:30:49;17.60;;;11.68;;
66628;SDS011;53532;53.084;6.352;2023-04-21T09:33:20;17.33;;;11.63;;
66628;SDS011;53532;53.084;6.352;2023-04-21T09:35:46;16.08;;;11.50;;
66628;SDS011;53532;53.084;6.352;2023-04-21T09:38:13;19.85;;;11.98;;
66628;SDS011;53532;53.084;6.352;2023-04-21T09:40:40;17.75;;;12.18;;
66628;SDS011;53532;53.084;6.352;2023-04-21T09:43:06;17.88;;;12.20;;
66628;SDS011;53532;53.084;6.352;2023-04-21T09:45:32;19.85;;;12.82;;
66628;SDS011;53532;53.084;6.352;2023-04-21T09:47:59;19.90;;;12.05;;
66628;SDS011;53532;53.084;6.352;2023-04-21T09:50:27;17.27;;;11.63;;
66628;SDS011;53532;53.084;6.352;2023-04-21T09:52:54;17.77;;;12.20;;
66628;SDS011;53532;53.084;6.352;2023-04-21T09:55:23;18.38;;;12.90;;
66628;SDS011;53532;53.084;6.352;2023-04-21T09:57:51;15.10;;;11.63;;
66628;SDS011;53532;53.084;6.352;2023-04-21T10:00:17;15.90;;;12.02;;
66628;SDS011;53532;53.084;6.352;2023-04-21T10:02:47;19.10;;;12.45;;
66628;SDS011;53532;53.084;6.352;2023-04-21T10:05:13;18.02;;;12.60;;
66628;SDS011;53532;53.084;6.352;2023-04-21T10:07:39;18.73;;;11.82;;
66628;SDS011;53532;53.084;6.352;2023-04-21T10:10:06;19.05;;;12.00;;
66628;SDS011;53532;53.084;6.352;2023-04-21T10:12:34;15.80;;;12.00;;
66628;SDS011;53532;53.084;6.352;2023-04-21T10:15:02;18.45;;;13.20;;
66628;SDS011;53532;53.084;6.352;2023-04-21T10:17:29;18.13;;;12.30;;
66628;SDS011;53532;53.084;6.352;2023-04-21T10:22:29;15.55;;;11.18;;
66628;SDS011;53532;53.084;6.352;2023-04-21T10:24:56;18.02;;;13.05;;
66628;SDS011;53532;53.084;6.352;2023-04-21T10:27:30;18.10;;;12.18;;
66628;SDS011;53532;53.084;6.352;2023-04-21T10:29:58;18.10;;;12.18;;
66628;SDS011;53532;53.084;6.352;2023-04-21T10:32:40;17.25;;;12.02;;
66628;SDS011;53532;53.084;6.352;2023-04-21T10:35:10;18.67;;;12.75;;
66628;SDS011;53532;53.084;6.352;2023-04-21T10:37:36;17.95;;;12.23;;
66628;SDS011;53532;53.084;6.352;2023-04-21T10:40:02;17.45;;;12.40;;
66628;SDS011;53532;53.084;6.352;2023-04-21T10:42:33;16.67;;;11.68;;
66628;SDS011;53532;53.084;6.352;2023-04-21T10:45:11;17.67;;;11.50;;
66628;SDS011;53532;53.084;6.352;2023-04-21T10:47:41;17.30;;;11.57;;
66628;SDS011;53532;53.084;6.352;2023-04-21T10:50:12;15.93;;;11.75;;
66628;SDS011;53532;53.084;6.352;2023-04-21T10:52:39;19.35;;;12.20;;
66628;SDS011;53532;53.084;6.352;2023-04-21T10:55:08;18.02;;;11.63;;
66628;SDS011;53532;53.084;6.352;2023-04-21T10:57:36;16.15;;;11.77;;
66628;SDS011;53532;53.084;6.352;2023-04-21T11:00:03;16.17;;;11.32;;
66628;SDS011;53532;53.084;6.352;2023-04-21T11:02:32;14.88;;;11.32;;
66628;SDS011;53532;53.084;6.352;2023-04-21T11:04:59;17.95;;;11.65;;
66628;SDS011;53532;53.084;6.352;2023-04-21T11:07:25;18.08;;;11.43;;
66628;SDS011;53532;53.084;6.352;2023-04-21T11:09:55;16.02;;;11.27;;
66628;SDS011;53532;53.084;6.352;2023-04-21T11:12:24;17.05;;;11.00;;
66628;SDS011;53532;53.084;6.352;2023-04-21T11:14:51;15.15;;;10.48;;
66628;SDS011;53532;53.084;6.352;2023-04-21T11:17:18;16.52;;;11.45;;
66628;SDS011;53532;53.084;6.352;2023-04-21T11:19:46;15.57;;;10.73;;
66628;SDS011;53532;53.084;6.352;2023-04-21T11:22:12;16.25;;;11.00;;
66628;SDS011;53532;53.084;6.352;2023-04-21T11:24:42;16.80;;;11.07;;
66628;SDS011;53532;53.084;6.352;2023-04-21T11:27:09;17.15;;;11.13;;
66628;SDS011;53532;53.084;6.352;2023-04-21T11:29:36;15.65;;;10.70;;
66628;SDS011;53532;53.084;6.352;2023-04-21T11:32:04;15.55;;;10.52;;
66628;SDS011;53532;53.084;6.352;2023-04-21T11:34:30;22.77;;;10.07;;
66628;SDS011;53532;53.084;6.352;2023-04-21T11:36:58;17.60;;;10.40;;
66628;SDS011;53532;53.084;6.352;2023-04-21T11:39:24;14.20;;;9.90;;
66628;SDS011;53532;53.084;6.352;2023-04-21T11:41:51;16.10;;;9.65;;
66628;SDS011;53532;53.084;6.352;2023-04-21T11:44:29;15.43;;;9.18;;
66628;SDS011;53532;53.084;6.352;2023-04-21T11:46:56;18.08;;;9.18;;
66628;SDS011;53532;53.084;6.352;2023-04-21T11:49:23;13.48;;;8.25;;
66628;SDS011;53532;53.084;6.352;2023-04-21T11:51:50;12.82;;;8.32;;
66628;SDS011;53532;53.084;6.352;2023-04-21T11:54:18;12.63;;;7.63;;
66628;SDS011;53532;53.084;6.352;2023-04-21T11:56:46;13.88;;;7.85;;
66628;SDS011;53532;53.084;6.352;2023-04-21T11:59:13;12.48;;;7.50;;
66628;SDS011;53532;53.084;6.352;2023-04-21T12:01:42;10.25;;;7.43;;
66628;SDS011;53532;53.084;6.352;2023-04-21T12:04:12;13.15;;;7.07;;
66628;SDS011;53532;53.084;6.352;2023-04-21T12:06:38;13.25;;;6.97;;
66628;SDS011;53532;53.084;6.352;2023-04-21T12:09:05;11.50;;;6.93;;
66628;SDS011;53532;53.084;6.352;2023-04-21T12:11:32;15.25;;;6.65;;
66628;SDS011;53532;53.084;6.352;2023-04-21T12:13:59;13.13;;;6.90;;
66628;SDS011;53532;53.084;6.352;2023-04-21T12:16:26;13.90;;;6.85;;
66628;SDS011;53532;53.084;6.352;2023-04-21T12:18:52;14.00;;;7.22;;
66628;SDS011;53532;53.084;6.352;2023-04-21T12:21:18;13.52;;;6.63;;
66628;SDS011;53532;53.084;6.352;2023-04-21T12:23:44;12.02;;;6.55;;
66628;SDS011;53532;53.084;6.352;2023-04-21T12:26:11;13.02;;;6.60;;
66628;SDS011;53532;53.084;6.352;2023-04-21T12:28:38;10.93;;;6.40;;
66628;SDS011;53532;53.084;6.352;2023-04-21T12:31:04;11.00;;;6.45;;
66628;SDS011;53532;53.084;6.352;2023-04-21T12:33:30;13.60;;;6.38;;
66628;SDS011;53532;53.084;6.352;2023-04-21T12:35:57;11.75;;;6.43;;
66628;SDS011;53532;53.084;6.352;2023-04-21T12:38:24;13.70;;;6.53;;
66628;SDS011;53532;53.084;6.352;2023-04-21T12:40:50;11.52;;;6.22;;
66628;SDS011;53532;53.084;6.352;2023-04-21T12:43:16;11.75;;;5.85;;
66628;SDS011;53532;53.084;6.352;2023-04-21T12:45:44;14.77;;;6.80;;
66628;SDS011;53532;53.084;6.352;2023-04-21T12:48:10;11.02;;;6.28;;
66628;SDS011;53532;53.084;6.352;2023-04-21T12:50:36;14.55;;;6.38;;
66628;SDS011;53532;53.084;6.352;2023-04-21T12:53:02;12.15;;;6.45;;
66628;SDS011;53532;53.084;6.352;2023-04-21T12:55:28;13.07;;;6.50;;
66628;SDS011;53532;53.084;6.352;2023-04-21T12:57:55;11.63;;;6.65;;
66628;SDS011;53532;53.084;6.352;2023-04-21T13:00:21;11.82;;;7.00;;
66628;SDS011;53532;53.084;6.352;2023-04-21T13:02:48;10.80;;;6.70;;
66628;SDS011;53532;53.084;6.352;2023-04-21T13:05:15;12.52;;;6.38;;
66628;SDS011;53532;53.084;6.352;2023-04-21T13:07:41;10.30;;;6.80;;
66628;SDS011;53532;53.084;6.352;2023-04-21T13:10:07;12.20;;;6.57;;
66628;SDS011;53532;53.084;6.352;2023-04-21T13:12:34;12.30;;;6.47;;
66628;SDS011;53532;53.084;6.352;2023-04-21T13:15:00;11.60;;;6.32;;
66628;SDS011;53532;53.084;6.352;2023-04-21T13:17:26;11.18;;;6.15;;
66628;SDS011;53532;53.084;6.352;2023-04-21T13:19:54;13.85;;;5.97;;
66628;SDS011;53532;53.084;6.352;2023-04-21T13:22:20;10.15;;;5.85;;
66628;SDS011;53532;53.084;6.352;2023-04-21T13:24:46;11.55;;;5.90;;
66628;SDS011;53532;53.084;6.352;2023-04-21T13:27:12;10.38;;;5.63;;
66628;SDS011;53532;53.084;6.352;2023-04-21T13:29:38;11.05;;;5.68;;
66628;SDS011;53532;53.084;6.352;2023-04-21T13:32:05;11.90;;;5.28;;
66628;SDS011;53532;53.084;6.352;2023-04-21T13:34:32;11.20;;;4.90;;
66628;SDS011;53532;53.084;6.352;2023-04-21T13:37:00;9.48;;;4.85;;
66628;SDS011;53532;53.084;6.352;2023-04-21T13:39:26;9.38;;;4.68;;
66628;SDS011;53532;53.084;6.352;2023-04-21T13:41:52;15.48;;;5.30;;
66628;SDS011;53532;53.084;6.352;2023-04-21T13:44:19;9.77;;;5.03;;
66628;SDS011;53532;53.084;6.352;2023-04-21T13:46:45;10.40;;;4.72;;
66628;SDS011;53532;53.084;6.352;2023-04-21T13:49:12;10.95;;;4.60;;
66628;SDS011;53532;53.084;6.352;2023-04-21T13:51:38;9.48;;;4.90;;
66628;SDS011;53532;53.084;6.352;2023-04-21T13:54:05;10.43;;;4.63;;
66628;SDS011;53532;53.084;6.352;2023-04-21T13:56:31;12.85;;;4.80;;
66628;SDS011;53532;53.084;6.352;2023-04-21T13:58:58;9.35;;;4.47;;
66628;SDS011;53532;53.084;6.352;2023-04-21T14:01:24;9.70;;;4.38;;
66628;SDS011;53532;53.084;6.352;2023-04-21T14:03:50;9.98;;;4.70;;
66628;SDS011;53532;53.084;6.352;2023-04-21T14:06:17;8.35;;;4.22;;
66628;SDS011;53532;53.084;6.352;2023-04-21T14:08:43;8.02;;;4.53;;
66628;SDS011;53532;53.084;6.352;2023-04-21T14:11:11;10.57;;;4.25;;
66628;SDS011;53532;53.084;6.352;2023-04-21T14:13:37;10.90;;;4.22;;
66628;SDS011;53532;53.084;6.352;2023-04-21T14:16:03;9.13;;;4.50;;
66628;SDS011;53532;53.084;6.352;2023-04-21T14:18:30;8.85;;;4.10;;
66628;SDS011;53532;53.084;6.352;2023-04-21T14:20:57;12.35;;;4.93;;
66628;SDS011;53532;53.084;6.352;2023-04-21T14:23:23;10.20;;;4.85;;